Time;durP1;ratioP1;P1;durP2;ratioP2;P2;SDS_P1;SDS_P2;PMS_P1;PMS_P2;Temp;Humidity;BMP_temperature;BMP_pressure;BME280_temperature;BME280_humidity;BME280_pressure;Samples;Min_cycle;Max_cycle;Signal;HPM_P1;HPM_P2
2021/07/28 00:02:25;;;;;;;24.40;7.90;;;;;;;17.16;64.55;101094.80;1680173;84;21340;-68
2021/07/28 00:04:58;;;;;;;21.47;8.10;;;;;;;17.11;64.65;101094.44;1683117;84;21534;-68
2021/07/28 00:07:31;;;;;;;22.93;8.05;;;;;;;17.07;64.80;101098.88;1682386;84;21375;-67
2021/07/28 00:10:05;;;;;;;15.65;8.43;;;;;;;17.05;65.03;101100.86;1653310;85;21382;-68
2021/07/28 00:12:38;;;;;;;34.08;8.80;;;;;;;17.01;65.16;101091.56;1633658;87;21311;-66
2021/07/28 00:15:12;;;;;;;21.03;8.20;;;;;;;16.98;65.45;101098.51;1685853;84;21300;-67
2021/07/28 00:17:55;;;;;;;23.30;7.92;;;;;;;16.99;65.65;101097.02;1680421;84;21375;-67
2021/07/28 00:23:14;;;;;;;20.67;7.50;;;;;;;17.03;65.75;101097.03;1682306;84;21186;-67
2021/07/28 00:25:48;;;;;;;18.73;7.97;;;;;;;17.04;65.71;101088.61;1681481;84;21289;-66
2021/07/28 00:28:21;;;;;;;15.68;7.90;;;;;;;17.07;65.58;101092.27;1688806;83;21299;-66
2021/07/28 00:30:54;;;;;;;15.40;7.23;;;;;;;17.08;65.51;101093.91;1682555;84;21268;-66
2021/07/28 00:33:27;;;;;;;17.27;7.12;;;;;;;17.08;65.47;101093.91;1679063;83;21332;-66
2021/07/28 00:36:01;;;;;;;86.78;40.55;;;;;;;17.09;65.51;101092.94;1682581;84;21293;-66
2021/07/28 00:38:33;;;;;;;36.90;14.45;;;;;;;17.12;65.63;101092.14;1681987;84;21297;-67
2021/07/28 00:41:07;;;;;;;33.98;14.73;;;;;;;17.11;65.64;101086.98;1669421;84;21288;-67
2021/07/28 00:43:40;;;;;;;27.90;11.10;;;;;;;17.09;65.72;101088.97;1680081;83;21194;-67
2021/07/28 00:46:13;;;;;;;64.93;27.57;;;;;;;17.07;65.85;101081.69;1684817;82;21775;-67
2021/07/28 00:48:46;;;;;;;38.40;15.68;;;;;;;17.06;65.88;101083.50;1682612;83;21301;-66
2021/07/28 00:51:19;;;;;;;32.13;11.85;;;;;;;17.03;65.90;101081.67;1681173;84;21275;-67
2021/07/28 00:53:52;;;;;;;26.63;10.43;;;;;;;16.99;66.07;101077.17;1683382;84;21292;-67
2021/07/28 00:56:27;;;;;;;23.02;9.73;;;;;;;16.97;66.34;101072.55;1684068;83;21895;-67
2021/07/28 00:58:59;;;;;;;28.83;10.55;;;;;;;16.96;66.62;101072.20;1682675;84;21292;-67
2021/07/28 01:01:32;;;;;;;86.70;36.55;;;;;;;16.96;66.86;101075.33;1655961;84;21277;-66
2021/07/28 01:04:06;;;;;;;125.38;50.30;;;;;;;16.96;66.87;101080.62;1684821;84;21304;-67
2021/07/28 01:06:39;;;;;;;43.70;16.57;;;;;;;16.94;66.76;101076.81;1679544;84;21190;-66
2021/07/28 01:09:13;;;;;;;23.52;9.60;;;;;;;16.93;66.86;101076.50;1683049;84;21288;-66
2021/07/28 01:11:46;;;;;;;29.80;10.38;;;;;;;16.91;66.81;101083.73;1685836;83;21280;-67
2021/07/28 01:14:20;;;;;;;18.75;8.50;;;;;;;16.89;66.88;101078.27;1681385;84;21284;-67
2021/07/28 01:16:53;;;;;;;19.77;9.45;;;;;;;16.87;67.08;101081.56;1654141;85;21830;-66
2021/07/28 01:19:33;;;;;;;24.47;10.05;;;;;;;16.83;67.20;101077.93;1651024;85;21292;-67
2021/07/28 01:22:07;;;;;;;26.48;10.58;;;;;;;16.81;67.35;101079.88;1647963;86;21238;-66
2021/07/28 01:24:40;;;;;;;24.23;9.60;;;;;;;16.77;67.45;101077.70;1680450;84;21285;-67
2021/07/28 01:27:13;;;;;;;22.02;9.28;;;;;;;16.74;67.48;101081.48;1681668;84;21321;-67
2021/07/28 01:29:46;;;;;;;23.32;9.30;;;;;;;16.71;67.64;101080.98;1651838;85;21190;-67
2021/07/28 01:32:19;;;;;;;25.20;9.80;;;;;;;16.69;67.82;101078.48;1680955;83;21336;-67
2021/07/28 01:34:53;;;;;;;14.55;8.35;;;;;;;16.69;67.91;101075.03;1680624;84;21237;-66
2021/07/28 01:37:26;;;;;;;21.10;9.05;;;;;;;16.68;67.83;101077.31;1681319;84;21292;-67
2021/07/28 01:40:00;;;;;;;;;;;;;;;16.63;67.58;101079.59;1648992;85;21380;-67
2021/07/28 01:42:44;;;;;;;27.13;8.28;;;;;;;16.54;67.45;101078.72;1648357;87;20227;-67
2021/07/28 01:45:17;;;;;;;18.82;8.60;;;;;;;16.45;67.42;101072.18;1674817;84;21327;-67
2021/07/28 01:47:51;;;;;;;19.35;7.75;;;;;;;16.36;67.19;101077.87;1654704;85;21206;-67
2021/07/28 01:50:25;;;;;;;22.67;7.60;;;;;;;16.29;66.98;101083.44;1649607;85;21827;-66
2021/07/28 01:53:03;;;;;;;24.55;8.25;;;;;;;16.24;66.87;101086.22;1653031;85;21291;-67
2021/07/28 01:55:36;;;;;;;22.95;8.73;;;;;;;16.18;66.69;101089.80;1683828;84;21832;-67
2021/07/28 01:58:09;;;;;;;26.45;9.03;;;;;;;16.10;66.50;101087.56;1680275;84;21282;-66
2021/07/28 02:00:42;;;;;;;24.55;8.80;;;;;;;16.05;66.48;101084.53;1683786;84;21353;-66
2021/07/28 02:03:16;;;;;;;23.27;8.15;;;;;;;15.99;66.51;101080.70;1647795;85;21345;-69
2021/07/28 02:05:49;;;;;;;22.65;8.90;;;;;;;15.96;66.56;101081.00;1648593;85;21300;-69
2021/07/28 02:08:22;;;;;;;26.05;9.40;;;;;;;15.97;66.60;101081.36;1652406;85;21341;-68
2021/07/28 02:10:56;;;;;;;25.97;8.63;;;;;;;15.97;66.37;101083.16;1648193;85;21166;-69
2021/07/28 02:13:30;;;;;;;20.57;8.33;;;;;;;15.98;66.22;101085.64;1682812;84;21292;-69
2021/07/28 02:16:03;;;;;;;21.75;8.45;;;;;;;15.99;66.14;101083.34;1683094;84;21308;-69
2021/07/28 02:18:36;;;;;;;26.97;8.73;;;;;;;16.02;65.98;101083.55;1681619;84;21296;-69
2021/07/28 02:21:09;;;;;;;22.73;8.20;;;;;;;16.04;65.81;101081.58;1681627;84;21329;-68
2021/07/28 02:23:42;;;;;;;21.15;8.50;;;;;;;16.07;65.82;101081.28;1676764;84;21347;-69
2021/07/28 02:26:15;;;;;;;20.20;7.95;;;;;;;16.10;65.64;101082.27;1686701;83;21197;-69
2021/07/28 02:28:48;;;;;;;18.67;5.70;;;;;;;16.12;65.61;101081.14;1689058;83;21292;-70
2021/07/28 02:31:21;;;;;;;18.67;6.20;;;;;;;16.17;65.40;101082.01;1682873;84;21284;-66
2021/07/28 02:33:54;;;;;;;19.67;8.30;;;;;;;16.19;65.25;101082.20;1682806;84;21327;-67
2021/07/28 02:36:27;;;;;;;24.37;8.50;;;;;;;16.27;65.41;101084.56;1650660;85;21325;-67
2021/07/28 02:39:00;;;;;;;28.30;9.80;;;;;;;16.37;65.48;101080.87;1650737;85;21621;-67
2021/07/28 02:41:34;;;;;;;25.73;8.93;;;;;;;16.46;65.47;101074.66;1680621;84;21225;-66
2021/07/28 02:44:07;;;;;;;27.15;9.65;;;;;;;16.57;65.42;101081.55;1686992;83;21960;-66
2021/07/28 02:46:40;;;;;;;22.30;9.68;;;;;;;16.67;65.42;101086.26;1677918;84;21752;-66
2021/07/28 02:49:13;;;;;;;29.92;9.33;;;;;;;16.79;65.17;101088.95;1683980;84;21284;-66
2021/07/28 02:51:47;;;;;;;24.70;8.90;;;;;;;16.93;65.04;101087.56;1683737;83;21269;-66
2021/07/28 02:54:22;;;;;;;15.88;7.67;;;;;;;17.07;64.86;101091.78;1678395;84;21217;-66
2021/07/28 02:56:55;;;;;;;27.25;8.50;;;;;;;17.22;64.44;101090.70;1688096;83;21336;-66
2021/07/28 02:59:28;;;;;;;19.30;7.45;;;;;;;17.34;63.60;101092.05;1684835;84;21280;-68
2021/07/28 03:02:02;;;;;;;24.25;7.25;;;;;;;17.46;62.94;101089.45;1681044;84;21355;-69
2021/07/28 03:04:35;;;;;;;20.77;8.48;;;;;;;17.59;62.34;101092.52;1682140;84;21280;-69
2021/07/28 03:07:08;;;;;;;27.62;8.20;;;;;;;17.70;61.93;101098.83;1649488;85;21347;-69
2021/07/28 03:09:41;;;;;;;20.55;7.40;;;;;;;17.83;61.55;101101.02;1648941;85;21918;-69
2021/07/28 03:12:14;;;;;;;21.17;7.08;;;;;;;17.96;61.34;101093.45;1645736;87;21301;-69
2021/07/28 03:14:47;;;;;;;22.80;7.75;;;;;;;18.10;61.08;101092.80;1645697;87;21347;-67
2021/07/28 03:17:21;;;;;;;14.53;7.70;;;;;;;18.21;60.86;101093.78;1672754;84;21303;-67
2021/07/28 03:19:54;;;;;;;19.25;7.62;;;;;;;18.31;60.74;101100.25;1678974;84;21305;-66
2021/07/28 03:22:27;;;;;;;23.50;8.80;;;;;;;18.42;60.62;101095.94;1683790;83;21322;-66
2021/07/28 03:25:01;;;;;;;24.77;8.58;;;;;;;18.50;60.34;101091.50;1684112;84;21295;-66
2021/07/28 03:27:34;;;;;;;18.25;8.35;;;;;;;18.59;60.17;101097.13;1681017;83;21300;-66
2021/07/28 03:30:09;;;;;;;27.22;10.32;;;;;;;18.71;59.86;101093.13;1682126;83;21193;-66
2021/07/28 03:32:42;;;;;;;24.02;9.13;;;;;;;18.87;59.62;101101.55;1684609;84;21285;-67
2021/07/28 03:35:15;;;;;;;18.30;8.00;;;;;;;19.03;59.41;101095.39;1678941;84;21301;-67
2021/07/28 03:37:48;;;;;;;27.10;7.85;;;;;;;19.30;58.84;101094.95;1682693;84;21804;-67
2021/07/28 03:40:22;;;;;;;17.82;7.42;;;;;;;19.60;58.24;101094.20;1682469;84;21280;-67
2021/07/28 03:42:56;;;;;;;20.75;8.55;;;;;;;19.85;57.47;101095.70;1678581;84;21320;-67
2021/07/28 03:45:29;;;;;;;20.55;7.03;;;;;;;20.17;56.52;101088.02;1679644;84;21190;-67
2021/07/28 03:48:02;;;;;;;22.80;7.35;;;;;;;20.43;55.47;101088.48;1678786;84;21277;-68
2021/07/28 03:50:35;;;;;;;16.73;6.95;;;;;;;20.87;54.47;101082.42;1685377;83;21292;-65
2021/07/28 03:53:09;;;;;;;23.70;7.72;;;;;;;21.47;53.01;101095.02;1685737;83;21197;-64
2021/07/28 03:55:43;;;;;;;16.35;6.85;;;;;;;22.06;51.32;101093.91;1681034;84;21169;-64
2021/07/28 03:58:16;;;;;;;16.50;7.08;;;;;;;22.68;49.47;101090.56;1683457;84;21181;-64
2021/07/28 04:00:49;;;;;;;25.80;6.97;;;;;;;23.16;47.94;101087.47;1683344;84;21308;-68
2021/07/28 04:03:22;;;;;;;19.85;6.55;;;;;;;23.68;46.65;101088.23;1686669;84;21300;-66
2021/07/28 04:05:57;;;;;;;20.20;7.22;;;;;;;24.21;45.44;101083.84;1679089;84;21360;-66
2021/07/28 04:08:30;;;;;;;16.23;6.47;;;;;;;24.74;43.85;101081.47;1684984;83;21296;-63
2021/07/28 04:11:03;;;;;;;17.02;7.08;;;;;;;25.23;42.57;101086.31;1684494;83;21300;-64
2021/07/28 04:13:36;;;;;;;20.35;6.10;;;;;;;25.70;41.44;101083.24;1683628;84;21193;-64
2021/07/28 04:16:09;;;;;;;13.25;6.15;;;;;;;26.25;40.27;101091.61;1679325;83;21197;-63
2021/07/28 04:18:42;;;;;;;20.82;6.25;;;;;;;26.73;38.89;101081.36;1676270;83;21861;-65
2021/07/28 04:21:16;;;;;;;14.58;5.95;;;;;;;27.17;38.05;101081.65;1651390;85;21300;-66
2021/07/28 04:23:49;;;;;;;17.87;6.35;;;;;;;27.66;37.22;101077.11;1655145;85;21828;-65
2021/07/28 04:26:22;;;;;;;24.80;6.37;;;;;;;28.20;36.34;101072.94;1651082;85;21303;-66
2021/07/28 04:28:54;;;;;;;;;;;;;;;28.78;34.95;101069.48;1651353;87;21276;-67
2021/07/28 04:31:27;;;;;;;27.80;6.67;;;;;;;29.23;34.15;101066.45;1682217;84;20238;-67
2021/07/28 04:34:01;;;;;;;23.42;7.03;;;;;;;29.64;33.57;101068.86;1652236;85;21331;-66
2021/07/28 04:36:34;;;;;;;13.35;6.53;;;;;;;30.13;32.59;101074.09;1651433;85;21272;-65
2021/07/28 04:39:07;;;;;;;14.30;6.33;;;;;;;30.52;31.90;101065.02;1688731;83;21205;-67
2021/07/28 04:41:39;;;;;;;;;;;;;;;30.93;31.14;101059.68;1682498;84;21221;-67
2021/07/28 04:44:12;;;;;;;17.20;6.10;;;;;;;31.25;30.58;101057.12;1682329;83;20169;-68
2021/07/28 04:46:45;;;;;;;17.40;6.75;;;;;;;31.64;30.22;101057.86;1688628;83;21299;-69
2021/07/28 04:49:18;;;;;;;14.90;5.90;;;;;;;32.15;29.51;101061.89;1681043;84;21288;-68
2021/07/28 04:51:51;;;;;;;;;;;;;;;32.68;28.81;101057.67;1670291;82;21198;-67
2021/07/28 04:54:24;;;;;;;18.62;6.33;;;;;;;33.20;27.92;101054.42;1673790;85;20298;-68
2021/07/28 04:56:57;;;;;;;20.45;6.95;;;;;;;33.60;27.64;101052.95;1654298;84;21279;-68
2021/07/28 04:59:30;;;;;;;14.05;6.08;;;;;;;34.12;26.88;101057.64;1680589;83;22555;-68
2021/07/28 05:02:02;;;;;;;;;;;;;;;34.58;25.88;101054.91;1680667;83;21815;-69
2021/07/28 05:04:35;;;;;;;18.40;6.35;;;;;;;35.08;25.04;101049.33;1684496;84;20269;-70
2021/07/28 05:07:08;;;;;;;17.82;6.33;;;;;;;35.44;24.61;101045.88;1636045;85;21398;-71
2021/07/28 05:09:41;;;;;;;20.90;6.53;;;;;;;35.90;24.07;101041.75;1646839;84;21343;-73
2021/07/28 05:12:16;;;;;;;22.98;6.72;;;;;;;36.30;23.35;101049.59;1634104;85;21312;-74
2021/07/28 05:14:49;;;;;;;14.83;5.35;;;;;;;36.68;22.89;101049.26;1679570;82;21673;-72
2021/07/28 05:17:23;;;;;;;14.85;6.22;;;;;;;37.13;22.44;101042.45;1674960;83;21279;-73
2021/07/28 05:19:57;;;;;;;20.95;7.12;;;;;;;37.48;21.78;101041.98;1670041;83;21312;-73
2021/07/28 05:22:31;;;;;;;21.62;5.65;;;;;;;37.91;21.49;101044.63;1647295;84;21542;-76
2021/07/28 05:25:04;;;;;;;12.58;5.80;;;;;;;38.32;20.92;101044.21;1679131;83;21313;-72
2021/07/28 05:27:39;;;;;;;20.92;5.83;;;;;;;38.67;20.57;101046.84;1679746;83;22242;-73
2021/07/28 05:30:12;;;;;;;18.45;6.22;;;;;;;38.95;20.21;101038.36;1668915;83;21923;-71
2021/07/28 05:32:45;;;;;;;18.57;6.55;;;;;;;39.22;20.18;101033.98;1661613;83;21293;-71
2021/07/28 05:35:18;;;;;;;20.20;6.25;;;;;;;39.56;19.90;101038.38;1679712;83;21297;-71
2021/07/28 05:38:02;;;;;;;19.95;6.70;;;;;;;39.77;19.60;101034.63;1677604;84;21325;-73
2021/07/28 05:40:37;;;;;;;15.70;5.83;;;;;;;39.97;19.26;101034.11;1671304;83;21533;-75
2021/07/28 05:43:10;;;;;;;13.03;5.92;;;;;;;40.16;19.14;101040.22;1663286;84;22180;-75
2021/07/28 05:45:44;;;;;;;13.22;5.67;;;;;;;40.46;18.69;101034.52;1668756;83;22110;-74
2021/07/28 05:48:17;;;;;;;15.00;5.50;;;;;;;40.65;18.20;101037.83;1673216;83;21405;-72
2021/07/28 05:50:51;;;;;;;20.27;5.28;;;;;;;40.97;17.73;101026.47;1678179;82;21304;-69
2021/07/28 05:53:24;;;;;;;16.20;5.35;;;;;;;41.29;17.50;101028.81;1644974;84;21350;-71
2021/07/28 05:55:57;;;;;;;22.15;6.17;;;;;;;41.58;16.89;101017.17;1607526;85;21420;-70
2021/07/28 05:58:30;;;;;;;13.65;5.03;;;;;;;41.69;17.01;101017.66;1675708;83;21347;-68
2021/07/28 06:01:05;;;;;;;23.02;6.03;;;;;;;41.89;16.42;101019.19;1648550;85;21205;-68
2021/07/28 06:03:39;;;;;;;21.05;5.30;;;;;;;42.18;16.25;101026.75;1639042;85;21306;-69
2021/07/28 06:06:13;;;;;;;11.12;5.10;;;;;;;42.49;16.42;101020.36;1634730;85;21339;-70
2021/07/28 06:08:46;;;;;;;15.32;5.53;;;;;;;42.91;16.12;101024.09;1641594;85;21514;-73
2021/07/28 06:11:19;;;;;;;18.90;5.30;;;;;;;43.24;15.83;101021.42;1668384;83;21550;-71
2021/07/28 06:13:52;;;;;;;25.68;5.28;;;;;;;43.62;15.33;101013.81;1669123;83;21847;-75
2021/07/28 06:16:26;;;;;;;18.80;5.85;;;;;;;43.88;14.85;101005.30;1644511;85;21196;-68
2021/07/28 06:18:59;;;;;;;19.32;6.28;;;;;;;44.08;14.41;101003.09;1672192;84;21305;-70
2021/07/28 06:21:34;;;;;;;22.93;6.17;;;;;;;44.28;14.01;101002.78;1671266;84;21346;-70
2021/07/28 06:24:09;;;;;;;18.17;5.35;;;;;;;44.53;13.96;100999.70;1665519;83;21359;-71
2021/07/28 06:26:43;;;;;;;14.68;4.97;;;;;;;44.92;13.88;100997.38;1658454;84;21311;-72
2021/07/28 06:29:17;;;;;;;13.68;5.08;;;;;;;45.34;13.02;100991.75;1665165;84;21391;-73
2021/07/28 06:31:51;;;;;;;16.97;4.95;;;;;;;45.63;12.47;100994.19;1668432;83;21360;-72
2021/07/28 06:34:24;;;;;;;11.55;4.62;;;;;;;45.78;12.09;100992.03;1658578;83;21911;-69
2021/07/28 06:36:57;;;;;;;13.83;4.35;;;;;;;45.98;11.89;100993.77;1669208;83;21347;-69
2021/07/28 06:39:31;;;;;;;18.70;4.60;;;;;;;46.24;11.65;100991.88;1675348;82;21321;-71
2021/07/28 06:42:04;;;;;;;12.28;4.67;;;;;;;46.58;11.35;100994.47;1666111;84;21870;-68
2021/07/28 06:44:38;;;;;;;10.93;4.47;;;;;;;46.99;11.13;100995.82;1672268;83;21276;-72
2021/07/28 06:47:11;;;;;;;10.75;4.65;;;;;;;47.23;11.28;100996.96;1679981;83;21338;-71
2021/07/28 06:49:44;;;;;;;10.20;4.17;;;;;;;47.38;11.29;100989.97;1653110;84;21330;-71
2021/07/28 06:52:17;;;;;;;11.83;4.72;;;;;;;47.49;11.04;100987.99;1671422;83;21885;-74
2021/07/28 06:54:51;;;;;;;10.18;4.00;;;;;;;47.71;10.72;100975.55;1671278;83;21791;-75
2021/07/28 06:57:25;;;;;;;13.60;5.12;;;;;;;47.97;10.38;100973.45;1661953;82;21247;-76
2021/07/28 06:59:59;;;;;;;8.85;3.92;;;;;;;48.14;10.26;100969.39;1660300;84;21192;-71
2021/07/28 07:02:35;;;;;;;10.72;4.50;;;;;;;48.27;10.27;100972.20;1643285;85;21284;-72
2021/07/28 07:05:12;;;;;;;20.17;4.75;;;;;;;48.42;10.05;100967.86;1676593;82;21308;-73
2021/07/28 07:07:48;;;;;;;15.83;4.87;;;;;;;48.72;10.04;100958.21;1643092;83;21196;-72
2021/07/28 07:10:24;;;;;;;17.85;5.30;;;;;;;49.01;10.09;100953.84;1670336;82;21346;-74
2021/07/28 07:12:57;;;;;;;15.28;4.70;;;;;;;49.10;9.87;100957.94;1658745;84;21699;-72
2021/07/28 07:15:30;;;;;;;41.20;6.60;;;;;;;49.24;9.72;100951.17;1616242;86;21881;-76
2021/07/28 07:18:05;;;;;;;21.17;4.78;;;;;;;49.26;9.33;100954.38;1629034;86;21359;-73
2021/07/28 07:20:38;;;;;;;23.62;6.60;;;;;;;49.15;8.97;100956.80;1628671;85;21914;-75
2021/07/28 07:23:12;;;;;;;17.32;6.40;;;;;;;49.31;9.38;100949.05;1627825;85;21624;-71
2021/07/28 07:25:45;;;;;;;15.70;5.60;;;;;;;49.60;9.15;100948.20;1628962;85;21222;-72
2021/07/28 07:28:18;;;;;;;12.95;4.92;;;;;;;49.73;8.97;100954.30;1679585;83;21349;-77
2021/07/28 07:30:51;;;;;;;10.60;4.90;;;;;;;49.89;8.69;100948.70;1670414;83;21822;-78
2021/07/28 07:33:40;;;;;;;11.25;4.60;;;;;;;50.17;8.26;100948.11;1672570;83;21324;-78
2021/07/28 07:36:23;;;;;;;11.97;4.47;;;;;;;50.37;7.70;100948.68;1674786;82;21361;-76
2021/07/28 07:38:57;;;;;;;6.78;3.58;;;;;;;50.50;7.75;100949.35;1677528;83;21149;-76
2021/07/28 07:41:30;;;;;;;7.25;4.03;;;;;;;50.73;7.48;100946.92;1670796;83;21332;-76
2021/07/28 07:44:03;;;;;;;8.48;4.15;;;;;;;50.96;7.37;100945.45;1642259;85;21307;-76
2021/07/28 07:46:36;;;;;;;7.35;4.37;;;;;;;51.22;7.05;100949.91;1644045;85;21486;-74
2021/07/28 07:49:12;;;;;;;5.90;3.90;;;;;;;51.34;6.74;100942.60;1622624;86;21272;-76
2021/07/28 07:51:44;;;;;;;9.55;4.15;;;;;;;51.30;6.57;100941.80;1663280;84;21189;-72
2021/07/28 07:54:17;;;;;;;5.17;3.58;;;;;;;51.24;6.52;100933.60;1675723;83;21225;-73
2021/07/28 07:56:50;;;;;;;4.08;3.20;;;;;;;51.09;6.65;100937.54;1679453;83;21208;-76
2021/07/28 07:59:23;;;;;;;5.58;3.20;;;;;;;50.80;6.58;100939.39;1678184;82;21540;-73
2021/07/28 08:01:56;;;;;;;7.03;3.47;;;;;;;50.42;6.97;100939.34;1653137;84;21311;-73
2021/07/28 08:04:31;;;;;;;5.78;3.70;;;;;;;49.92;7.34;100931.02;1617311;86;21272;-70
2021/07/28 08:07:04;;;;;;;6.10;3.92;;;;;;;49.53;7.62;100920.31;1667847;84;21455;-72
2021/07/28 08:09:37;;;;;;;8.88;5.47;;;;;;;49.34;7.91;100921.87;1657772;84;21410;-73
2021/07/28 08:12:10;;;;;;;8.45;5.67;;;;;;;49.23;7.96;100918.97;1641470;86;21351;-71
2021/07/28 08:14:43;;;;;;;8.50;3.80;;;;;;;49.11;7.96;100920.59;1670739;83;21331;-71
2021/07/28 08:17:16;;;;;;;5.83;3.70;;;;;;;49.12;7.98;100914.45;1650513;83;21396;-71
2021/07/28 08:19:49;;;;;;;5.72;3.37;;;;;;;49.00;8.10;100915.50;1636371;85;21260;-75
2021/07/28 08:22:22;;;;;;;5.65;3.20;;;;;;;48.81;8.33;100917.61;1673844;83;21356;-73
2021/07/28 08:24:55;;;;;;;5.87;3.10;;;;;;;48.72;7.97;100909.58;1676650;83;21342;-72
2021/07/28 08:27:28;;;;;;;11.73;3.75;;;;;;;48.38;8.19;100910.66;1669468;84;21351;-72
2021/07/28 08:30:02;;;;;;;5.45;3.25;;;;;;;48.04;8.43;100897.22;1683023;83;21280;-72
2021/07/28 08:32:35;;;;;;;10.15;3.30;;;;;;;47.87;8.55;100905.48;1669671;84;21330;-69
2021/07/28 08:35:09;;;;;;;9.58;3.80;;;;;;;47.74;8.69;100890.76;1675153;83;21233;-70
2021/07/28 08:37:43;;;;;;;5.90;3.12;;;;;;;47.77;8.97;100890.03;1672934;83;21316;-73
2021/07/28 08:40:17;;;;;;;5.70;3.25;;;;;;;47.63;8.96;100890.56;1678548;83;21346;-74
2021/07/28 08:42:50;;;;;;;15.23;3.42;;;;;;;47.06;9.20;100886.47;1651932;84;21913;-72
2021/07/28 08:45:23;;;;;;;6.22;3.08;;;;;;;46.76;9.54;100889.05;1638969;85;21306;-69
2021/07/28 08:47:56;;;;;;;5.90;3.75;;;;;;;46.51;9.64;100895.97;1622532;86;21340;-73
2021/07/28 08:50:29;;;;;;;4.97;3.00;;;;;;;46.43;9.50;100892.84;1642299;85;21149;-70
2021/07/28 08:53:02;;;;;;;7.47;3.17;;;;;;;46.50;9.16;100892.42;1629441;87;21398;-69
2021/07/28 08:55:35;;;;;;;6.78;3.20;;;;;;;46.47;8.75;100889.56;1619472;86;21410;-70
2021/07/28 08:58:10;;;;;;;4.80;3.05;;;;;;;46.37;8.82;100881.23;1646156;85;21361;-71
2021/07/28 09:00:47;;;;;;;4.83;2.80;;;;;;;46.37;8.89;100878.47;1675136;83;21299;-68
2021/07/28 09:03:20;;;;;;;8.80;3.02;;;;;;;46.10;9.38;100870.50;1672406;84;21228;-69
2021/07/28 09:06:02;;;;;;;5.37;3.00;;;;;;;45.82;9.30;100865.64;1668394;84;21427;-69
2021/07/28 09:08:36;;;;;;;8.30;2.92;;;;;;;45.48;9.73;100869.68;1676747;83;21316;-70
2021/07/28 09:11:09;;;;;;;8.43;3.22;;;;;;;45.31;10.23;100865.29;1673239;83;21890;-71
2021/07/28 09:13:43;;;;;;;6.85;2.77;;;;;;;45.27;10.15;100861.03;1676072;83;21346;-69
2021/07/28 09:16:17;;;;;;;11.12;3.20;;;;;;;45.16;10.28;100858.54;1678881;82;21318;-69
2021/07/28 09:18:52;;;;;;;6.05;3.17;;;;;;;45.02;10.53;100855.39;1683803;82;21416;-68
2021/07/28 09:21:31;;;;;;;7.45;3.37;;;;;;;44.84;10.45;100858.22;1681013;83;21448;-68
2021/07/28 09:24:14;;;;;;;4.92;3.17;;;;;;;44.52;10.26;100856.46;1646951;84;21220;-67
2021/07/28 09:26:54;;;;;;;7.70;3.20;;;;;;;43.79;10.52;100861.16;1645839;85;21327;-67
2021/07/28 09:29:28;;;;;;;5.83;2.90;;;;;;;43.22;10.94;100854.22;1681888;83;21351;-69
2021/07/28 09:32:09;;;;;;;7.42;3.58;;;;;;;42.80;11.35;100842.45;1666827;83;21231;-69
2021/07/28 09:34:43;;;;;;;8.38;3.50;;;;;;;42.68;11.59;100851.43;1664307;83;21184;-66
2021/07/28 09:37:17;;;;;;;6.22;3.40;;;;;;;42.61;11.83;100851.16;1661075;84;21448;-69
2021/07/28 09:39:52;;;;;;;4.72;3.05;;;;;;;42.49;11.93;100855.78;1665248;84;21196;-68
2021/07/28 09:42:28;;;;;;;6.08;3.05;;;;;;;42.12;12.20;100852.77;1669523;84;21292;-68
2021/07/28 09:45:02;;;;;;;5.03;3.00;;;;;;;41.82;12.18;100858.00;1678820;84;21935;-66
2021/07/28 09:47:41;;;;;;;4.65;3.33;;;;;;;41.50;12.58;100851.69;1674979;83;21225;-69
2021/07/28 09:50:15;;;;;;;8.08;3.40;;;;;;;41.24;12.87;100849.53;1682683;83;21339;-68
2021/07/28 09:52:54;;;;;;;4.65;3.17;;;;;;;40.91;12.65;100855.53;1636717;86;21284;-68
2021/07/28 09:55:25;;;;;;;3.95;2.98;;;;;;;40.60;12.89;100849.95;1686907;84;21351;-68
2021/07/28 09:57:59;;;;;;;3.65;3.02;;;;;;;40.45;13.26;100849.03;1657774;85;21401;-72
2021/07/28 10:00:32;;;;;;;5.78;2.92;;;;;;;40.30;13.42;100844.22;1647737;86;21647;-68
2021/07/28 10:03:05;;;;;;;10.05;3.05;;;;;;;40.06;13.47;100834.78;1676695;84;21328;-67
2021/07/28 10:05:40;;;;;;;4.17;2.90;;;;;;;39.77;13.35;100835.30;1666427;83;21351;-66
2021/07/28 10:08:14;;;;;;;4.65;3.12;;;;;;;39.44;13.76;100835.35;1643440;85;21218;-71
2021/07/28 10:10:51;;;;;;;6.20;3.40;;;;;;;39.19;14.22;100840.13;1645579;85;21855;-69
2021/07/28 10:13:25;;;;;;;9.95;3.47;;;;;;;38.93;14.32;100825.64;1649547;85;21309;-67
2021/07/28 10:15:58;;;;;;;5.50;2.95;;;;;;;38.78;14.33;100829.31;1611101;87;21830;-70
2021/07/28 10:18:32;;;;;;;7.83;3.08;;;;;;;38.61;14.20;100827.21;1678893;83;21335;-68
2021/07/28 10:21:05;;;;;;;4.30;2.77;;;;;;;38.42;14.13;100819.70;1667622;83;21859;-71
2021/07/28 10:23:38;;;;;;;6.08;3.05;;;;;;;38.23;14.19;100824.47;1640637;84;21213;-71
2021/07/28 10:26:13;;;;;;;5.15;2.85;;;;;;;38.11;14.84;100829.09;1674796;82;21327;-69
2021/07/28 10:28:49;;;;;;;8.88;2.80;;;;;;;37.95;15.18;100826.43;1645513;85;21380;-71
2021/07/28 10:31:25;;;;;;;8.93;3.40;;;;;;;37.78;14.97;100822.87;1601485;84;21771;-67
2021/07/28 10:33:57;;;;;;;7.42;3.70;;;;;;;37.62;15.10;100829.74;1677322;83;21275;-67
2021/07/28 10:36:48;;;;;;;8.45;3.47;;;;;;;37.46;15.46;100827.05;1679154;84;21354;-68
2021/07/28 10:39:43;;;;;;;5.75;3.20;;;;;;;37.29;15.45;100824.03;1675988;83;21248;-71
2021/07/28 10:42:34;;;;;;;7.45;3.27;;;;;;;37.11;15.55;100824.35;1677506;83;21373;-69
2021/07/28 10:45:13;;;;;;;8.43;3.08;;;;;;;37.00;15.70;100823.42;1650777;84;21256;-68
2021/07/28 10:47:51;;;;;;;5.00;3.33;;;;;;;36.91;16.18;100822.45;1637620;85;21236;-71
2021/07/28 10:50:29;;;;;;;7.70;3.50;;;;;;;36.79;16.28;100823.45;1635230;86;21354;-71
2021/07/28 10:53:04;;;;;;;6.95;3.17;;;;;;;36.69;16.02;100818.14;1670740;84;21324;-68
2021/07/28 10:55:37;;;;;;;7.35;3.60;;;;;;;36.53;15.90;100814.84;1677187;82;21355;-69
2021/07/28 10:58:13;;;;;;;;;;;;;;;36.41;15.79;100817.97;1645165;84;21248;-70
2021/07/28 11:00:50;;;;;;;5.08;3.67;;;;;;;36.28;15.68;100811.86;1625900;86;20242;-68
2021/07/28 11:03:29;;;;;;;10.95;3.33;;;;;;;36.12;15.91;100802.27;1679800;83;21188;-69
2021/07/28 11:06:19;;;;;;;6.80;3.30;;;;;;;36.08;15.88;100810.77;1650355;84;21741;-69
2021/07/28 11:08:53;;;;;;;5.40;2.85;;;;;;;35.98;15.63;100791.81;1635490;84;21329;-68
2021/07/28 11:11:28;;;;;;;8.45;3.40;;;;;;;35.94;16.16;100798.11;1613281;86;21343;-69
2021/07/28 11:14:01;;;;;;;3.67;2.67;;;;;;;35.91;16.29;100789.14;1679260;83;21782;-70
2021/07/28 11:16:35;;;;;;;4.25;2.90;;;;;;;35.89;16.08;100793.53;1651286;85;21327;-72
2021/07/28 11:19:09;;;;;;;5.37;3.25;;;;;;;35.87;16.14;100784.84;1628312;85;21383;-73
2021/07/28 11:21:42;;;;;;;7.58;3.30;;;;;;;35.82;15.91;100779.45;1630438;86;21327;-72
2021/07/28 11:24:17;;;;;;;5.55;2.92;;;;;;;35.79;15.40;100782.20;1639971;85;21240;-72
2021/07/28 11:26:51;;;;;;;4.70;3.20;;;;;;;35.71;15.42;100786.09;1616873;86;21326;-73
2021/07/28 11:29:24;;;;;;;5.85;3.27;;;;;;;35.65;15.01;100784.00;1635362;85;21284;-72
2021/07/28 11:31:58;;;;;;;7.00;3.40;;;;;;;35.53;15.60;100771.88;1622069;86;21851;-72
2021/07/28 11:34:33;;;;;;;7.15;2.60;;;;;;;35.44;15.87;100766.77;1667113;83;21455;-73
2021/07/28 11:37:05;;;;;;;;;;;;;;;35.42;15.96;100766.25;1678309;83;21405;-73
2021/07/28 11:39:39;;;;;;;3.67;3.02;;;;;;;35.37;15.92;100759.48;1674712;82;20236;-73
2021/07/28 11:42:12;;;;;;;4.45;3.10;;;;;;;35.27;16.41;100759.05;1680042;82;21267;-73
2021/07/28 11:44:48;;;;;;;4.47;3.22;;;;;;;35.13;16.22;100753.44;1669981;83;21198;-71
2021/07/28 11:47:27;;;;;;;4.10;3.40;;;;;;;35.01;16.33;100750.24;1673861;82;21310;-72
2021/07/28 11:50:11;;;;;;;4.72;2.77;;;;;;;34.92;15.81;100743.80;1677336;83;21406;-70
2021/07/28 11:52:47;;;;;;;;;;;;;;;34.81;15.80;100753.15;1651665;85;21288;-69
2021/07/28 11:55:26;;;;;;;8.58;3.10;;;;;;;34.68;15.96;100741.54;1644391;84;20309;-71
2021/07/28 11:58:00;;;;;;;5.22;3.10;;;;;;;34.58;16.44;100738.09;1663520;84;21231;-73